sensor_id;sensor_type;location;lat;lon;timestamp;pressure;altitude;pressure_sealevel;temperature;humidity
71043;BME280;58696;52.134;5.500;2023-02-20T00:01:03;102681.75;;;4.99;94.93
71043;BME280;58696;52.134;5.500;2023-02-20T00:03:30;102683.41;;;5.00;94.94
71043;BME280;58696;52.134;5.500;2023-02-20T00:05:59;102679.00;;;5.03;94.96
71043;BME280;58696;52.134;5.500;2023-02-20T00:08:28;102673.00;;;5.04;94.90
71043;BME280;58696;52.134;5.500;2023-02-20T00:10:55;102671.25;;;5.04;94.85
71043;BME280;58696;52.134;5.500;2023-02-20T00:13:23;102673.63;;;5.07;94.94
71043;BME280;58696;52.134;5.500;2023-02-20T00:15:52;102676.16;;;5.07;94.80
71043;BME280;58696;52.134;5.500;2023-02-20T00:18:21;102665.16;;;5.07;94.65
71043;BME280;58696;52.134;5.500;2023-02-20T00:20:47;102665.88;;;5.09;94.71
71043;BME280;58696;52.134;5.500;2023-02-20T00:23:14;102659.84;;;5.10;94.65
71043;BME280;58696;52.134;5.500;2023-02-20T00:25:41;102651.19;;;5.12;94.58
71043;BME280;58696;52.134;5.500;2023-02-20T00:28:10;102639.97;;;5.15;94.53
71043;BME280;58696;52.134;5.500;2023-02-20T00:30:39;102643.84;;;5.20;94.39
71043;BME280;58696;52.134;5.500;2023-02-20T00:33:06;102638.66;;;5.22;94.29
71043;BME280;58696;52.134;5.500;2023-02-20T00:35:34;102641.00;;;5.25;94.23
71043;BME280;58696;52.134;5.500;2023-02-20T00:38:05;102628.94;;;5.27;94.23
71043;BME280;58696;52.134;5.500;2023-02-20T00:40:32;102621.22;;;5.28;94.00
71043;BME280;58696;52.134;5.500;2023-02-20T00:43:03;102625.41;;;5.30;94.13
71043;BME280;58696;52.134;5.500;2023-02-20T00:45:32;102617.53;;;5.33;94.17
71043;BME280;58696;52.134;5.500;2023-02-20T00:48:01;102616.72;;;5.32;94.00
71043;BME280;58696;52.134;5.500;2023-02-20T00:50:32;102603.16;;;5.32;93.86
71043;BME280;58696;52.134;5.500;2023-02-20T00:52:59;102597.34;;;5.30;93.91
71043;BME280;58696;52.134;5.500;2023-02-20T00:55:25;102590.72;;;5.27;93.81
71043;BME280;58696;52.134;5.500;2023-02-20T00:57:54;102595.13;;;5.25;94.08
71043;BME280;58696;52.134;5.500;2023-02-20T01:00:27;102590.94;;;5.24;93.75
71043;BME280;58696;52.134;5.500;2023-02-20T01:02:58;102588.38;;;5.24;94.09
71043;BME280;58696;52.134;5.500;2023-02-20T01:05:25;102582.47;;;5.23;93.93
71043;BME280;58696;52.134;5.500;2023-02-20T01:07:51;102581.75;;;5.21;93.98
71043;BME280;58696;52.134;5.500;2023-02-20T01:10:19;102561.47;;;5.20;94.07
71043;BME280;58696;52.134;5.500;2023-02-20T01:12:46;102568.31;;;5.19;93.86
71043;BME280;58696;52.134;5.500;2023-02-20T01:15:15;102552.41;;;5.16;94.05
71043;BME280;58696;52.134;5.500;2023-02-20T01:17:44;102543.13;;;5.15;93.70
71043;BME280;58696;52.134;5.500;2023-02-20T01:20:11;102527.13;;;5.13;94.10
71043;BME280;58696;52.134;5.500;2023-02-20T01:22:38;102523.88;;;5.11;94.14
71043;BME280;58696;52.134;5.500;2023-02-20T01:25:05;102525.72;;;5.09;94.16
71043;BME280;58696;52.134;5.500;2023-02-20T01:27:34;102540.06;;;5.10;94.29
71043;BME280;58696;52.134;5.500;2023-02-20T01:30:03;102536.72;;;5.09;94.25
71043;BME280;58696;52.134;5.500;2023-02-20T01:32:30;102528.47;;;5.06;94.14
71043;BME280;58696;52.134;5.500;2023-02-20T01:34:59;102531.03;;;5.06;94.17
71043;BME280;58696;52.134;5.500;2023-02-20T01:37:26;102531.22;;;5.03;94.35
71043;BME280;58696;52.134;5.500;2023-02-20T01:39:55;102541.63;;;4.99;94.27
71043;BME280;58696;52.134;5.500;2023-02-20T01:42:26;102530.53;;;5.00;94.55
71043;BME280;58696;52.134;5.500;2023-02-20T01:44:54;102532.16;;;5.01;94.49
71043;BME280;58696;52.134;5.500;2023-02-20T01:47:23;102526.94;;;5.03;94.45
71043;BME280;58696;52.134;5.500;2023-02-20T01:49:59;102528.69;;;5.03;94.46
71043;BME280;58696;52.134;5.500;2023-02-20T01:52:33;102520.22;;;5.02;94.43
71043;BME280;58696;52.134;5.500;2023-02-20T01:57:40;102525.31;;;5.02;94.35
71043;BME280;58696;52.134;5.500;2023-02-20T02:00:12;102524.59;;;5.00;94.67
71043;BME280;58696;52.134;5.500;2023-02-20T02:02:42;102524.28;;;5.05;94.66
71043;BME280;58696;52.134;5.500;2023-02-20T02:05:12;102527.34;;;5.10;94.59
71043;BME280;58696;52.134;5.500;2023-02-20T02:07:38;102518.75;;;5.11;94.60
71043;BME280;58696;52.134;5.500;2023-02-20T02:10:21;102496.44;;;5.14;94.55
71043;BME280;58696;52.134;5.500;2023-02-20T02:12:54;102493.19;;;5.12;94.35
71043;BME280;58696;52.134;5.500;2023-02-20T02:15:22;102484.31;;;5.18;94.37
71043;BME280;58696;52.134;5.500;2023-02-20T02:39:27;102476.44;;;5.58;94.48
71043;BME280;58696;52.134;5.500;2023-02-20T02:47:26;102457.69;;;5.70;94.63
71043;BME280;58696;52.134;5.500;2023-02-20T02:49:58;102462.59;;;5.73;94.59
71043;BME280;58696;52.134;5.500;2023-02-20T02:52:27;102458.19;;;5.75;94.78
71043;BME280;58696;52.134;5.500;2023-02-20T02:55:05;102457.03;;;5.79;94.94
71043;BME280;58696;52.134;5.500;2023-02-20T02:57:32;102458.44;;;5.83;94.79
71043;BME280;58696;52.134;5.500;2023-02-20T03:00:05;102459.88;;;5.87;94.78
71043;BME280;58696;52.134;5.500;2023-02-20T03:02:47;102460.34;;;5.92;94.96
71043;BME280;58696;52.134;5.500;2023-02-20T03:05:18;102460.44;;;5.91;95.09
71043;BME280;58696;52.134;5.500;2023-02-20T03:07:50;102450.88;;;5.94;95.10
71043;BME280;58696;52.134;5.500;2023-02-20T03:10:23;102451.56;;;5.96;95.13
71043;BME280;58696;52.134;5.500;2023-02-20T03:12:58;102464.09;;;5.99;95.07
71043;BME280;58696;52.134;5.500;2023-02-20T03:15:33;102454.59;;;6.01;95.14
71043;BME280;58696;52.134;5.500;2023-02-20T03:20:42;102465.16;;;6.08;95.33
71043;BME280;58696;52.134;5.500;2023-02-20T03:23:33;102453.91;;;6.11;95.31
71043;BME280;58696;52.134;5.500;2023-02-20T03:26:05;102450.22;;;6.15;95.39
71043;BME280;58696;52.134;5.500;2023-02-20T03:29:18;102441.50;;;6.17;95.39
71043;BME280;58696;52.134;5.500;2023-02-20T03:31:51;102435.38;;;6.20;95.23
71043;BME280;58696;52.134;5.500;2023-02-20T03:34:37;102446.28;;;6.22;95.30
71043;BME280;58696;52.134;5.500;2023-02-20T03:37:26;102430.03;;;6.23;95.20
71043;BME280;58696;52.134;5.500;2023-02-20T03:40:14;102423.91;;;6.25;95.43
71043;BME280;58696;52.134;5.500;2023-02-20T03:43:04;102433.75;;;6.30;95.30
71043;BME280;58696;52.134;5.500;2023-02-20T03:45:48;102434.47;;;6.32;95.25
71043;BME280;58696;52.134;5.500;2023-02-20T03:48:23;102419.84;;;6.34;95.42
71043;BME280;58696;52.134;5.500;2023-02-20T03:50:55;102423.91;;;6.37;95.29
71043;BME280;58696;52.134;5.500;2023-02-20T03:53:42;102432.25;;;6.39;95.38
71043;BME280;58696;52.134;5.500;2023-02-20T03:56:15;102425.28;;;6.41;95.35
71043;BME280;58696;52.134;5.500;2023-02-20T03:58:54;102419.28;;;6.42;95.55
71043;BME280;58696;52.134;5.500;2023-02-20T04:01:24;102424.38;;;6.42;95.29
71043;BME280;58696;52.134;5.500;2023-02-20T04:03:55;102423.44;;;6.43;95.27
71043;BME280;58696;52.134;5.500;2023-02-20T04:06:28;102416.47;;;6.45;95.33
71043;BME280;58696;52.134;5.500;2023-02-20T04:09:06;102412.19;;;6.45;95.45
71043;BME280;58696;52.134;5.500;2023-02-20T04:11:40;102414.50;;;6.48;95.43
71043;BME280;58696;52.134;5.500;2023-02-20T04:14:12;102410.22;;;6.49;95.48
71043;BME280;58696;52.134;5.500;2023-02-20T04:16:49;102414.25;;;6.51;95.17
71043;BME280;58696;52.134;5.500;2023-02-20T04:19:21;102410.91;;;6.51;95.39
71043;BME280;58696;52.134;5.500;2023-02-20T04:22:03;102412.53;;;6.52;95.38
71043;BME280;58696;52.134;5.500;2023-02-20T04:24:43;102419.16;;;6.54;95.50
71043;BME280;58696;52.134;5.500;2023-02-20T04:27:12;102413.09;;;6.55;95.52
71043;BME280;58696;52.134;5.500;2023-02-20T04:29:39;102409.53;;;6.58;95.33
71043;BME280;58696;52.134;5.500;2023-02-20T04:32:09;102412.75;;;6.60;95.25
71043;BME280;58696;52.134;5.500;2023-02-20T04:34:35;102412.75;;;6.60;95.34
71043;BME280;58696;52.134;5.500;2023-02-20T04:37:22;102410.91;;;6.62;95.31
71043;BME280;58696;52.134;5.500;2023-02-20T04:39:51;102405.69;;;6.64;95.32
71043;BME280;58696;52.134;5.500;2023-02-20T04:42:18;102409.16;;;6.63;95.57
71043;BME280;58696;52.134;5.500;2023-02-20T04:44:44;102405.56;;;6.65;94.96
71043;BME280;58696;52.134;5.500;2023-02-20T04:47:16;102399.66;;;6.65;95.45
71043;BME280;58696;52.134;5.500;2023-02-20T04:49:45;102411.25;;;6.69;95.15
71043;BME280;58696;52.134;5.500;2023-02-20T04:52:14;102405.09;;;6.71;95.17
71043;BME280;58696;52.134;5.500;2023-02-20T04:54:40;102411.81;;;6.72;95.14
71043;BME280;58696;52.134;5.500;2023-02-20T04:57:07;102416.00;;;6.73;95.25
71043;BME280;58696;52.134;5.500;2023-02-20T04:59:35;102403.13;;;6.75;95.17
71043;BME280;58696;52.134;5.500;2023-02-20T05:02:07;102406.50;;;6.75;95.04
71043;BME280;58696;52.134;5.500;2023-02-20T05:04:35;102412.16;;;6.79;95.07
71043;BME280;58696;52.134;5.500;2023-02-20T05:07:04;102408.56;;;6.81;94.94
71043;BME280;58696;52.134;5.500;2023-02-20T05:09:33;102403.59;;;6.80;94.92
71043;BME280;58696;52.134;5.500;2023-02-20T05:12:00;102411.25;;;6.80;94.83
71043;BME280;58696;52.134;5.500;2023-02-20T05:14:31;102411.13;;;6.81;94.92
71043;BME280;58696;52.134;5.500;2023-02-20T05:16:58;102409.38;;;6.82;94.86
71043;BME280;58696;52.134;5.500;2023-02-20T05:19:29;102405.06;;;6.82;94.94
71043;BME280;58696;52.134;5.500;2023-02-20T05:21:56;102395.66;;;6.83;94.93
71043;BME280;58696;52.134;5.500;2023-02-20T05:24:49;102404.03;;;6.85;94.94
71043;BME280;58696;52.134;5.500;2023-02-20T05:27:18;102398.81;;;6.87;94.68
71043;BME280;58696;52.134;5.500;2023-02-20T05:29:54;102393.69;;;6.87;94.89
71043;BME280;58696;52.134;5.500;2023-02-20T05:32:22;102385.09;;;6.88;94.67
71043;BME280;58696;52.134;5.500;2023-02-20T05:34:51;102400.06;;;6.92;94.51
71043;BME280;58696;52.134;5.500;2023-02-20T05:37:19;102397.38;;;6.94;94.45
71043;BME280;58696;52.134;5.500;2023-02-20T05:39:49;102398.91;;;6.96;94.52
71043;BME280;58696;52.134;5.500;2023-02-20T05:42:21;102392.72;;;6.99;94.33
71043;BME280;58696;52.134;5.500;2023-02-20T05:44:48;102385.75;;;7.01;94.40
71043;BME280;58696;52.134;5.500;2023-02-20T05:47:16;102388.19;;;7.02;94.08
71043;BME280;58696;52.134;5.500;2023-02-20T05:49:45;102385.50;;;7.04;94.03
71043;BME280;58696;52.134;5.500;2023-02-20T05:52:14;102388.88;;;7.04;94.09
71043;BME280;58696;52.134;5.500;2023-02-20T05:54:41;102383.63;;;7.06;93.84
71043;BME280;58696;52.134;5.500;2023-02-20T05:57:10;102387.84;;;7.07;93.76
71043;BME280;58696;52.134;5.500;2023-02-20T05:59:39;102388.53;;;7.09;93.65
71043;BME280;58696;52.134;5.500;2023-02-20T06:02:05;102387.59;;;7.10;93.72
71043;BME280;58696;52.134;5.500;2023-02-20T06:04:32;102390.81;;;7.12;93.75
71043;BME280;58696;52.134;5.500;2023-02-20T06:06:58;102389.09;;;7.13;93.56
71043;BME280;58696;52.134;5.500;2023-02-20T06:09:25;102383.16;;;7.12;93.61
71043;BME280;58696;52.134;5.500;2023-02-20T06:11:54;102381.16;;;7.16;93.80
71043;BME280;58696;52.134;5.500;2023-02-20T06:14:24;102377.81;;;7.15;93.74
71043;BME280;58696;52.134;5.500;2023-02-20T06:16:58;102385.47;;;7.15;93.54
71043;BME280;58696;52.134;5.500;2023-02-20T06:19:27;102384.00;;;7.13;93.81
71043;BME280;58696;52.134;5.500;2023-02-20T06:21:53;102381.31;;;7.14;93.64
71043;BME280;58696;52.134;5.500;2023-02-20T06:24:20;102386.28;;;7.16;93.76
71043;BME280;58696;52.134;5.500;2023-02-20T06:26:47;102395.47;;;7.18;93.78
71043;BME280;58696;52.134;5.500;2023-02-20T06:29:18;102392.78;;;7.20;93.48
71043;BME280;58696;52.134;5.500;2023-02-20T06:31:48;102389.97;;;7.23;93.49
71043;BME280;58696;52.134;5.500;2023-02-20T06:34:17;102397.53;;;7.24;93.57
71043;BME280;58696;52.134;5.500;2023-02-20T06:36:46;102389.88;;;7.24;93.35
71043;BME280;58696;52.134;5.500;2023-02-20T06:39:18;102389.88;;;7.24;93.31
71043;BME280;58696;52.134;5.500;2023-02-20T06:41:47;102393.25;;;7.25;93.31
71043;BME280;58696;52.134;5.500;2023-02-20T06:44:13;102395.81;;;7.25;93.28
71043;BME280;58696;52.134;5.500;2023-02-20T06:46:42;102388.81;;;7.27;93.15
71043;BME280;58696;52.134;5.500;2023-02-20T06:49:11;102376.72;;;7.29;93.04
71043;BME280;58696;52.134;5.500;2023-02-20T06:51:40;102386.97;;;7.29;92.79
71043;BME280;58696;52.134;5.500;2023-02-20T06:54:07;102384.28;;;7.30;92.70
71043;BME280;58696;52.134;5.500;2023-02-20T06:56:35;102388.44;;;7.31;92.85
71043;BME280;58696;52.134;5.500;2023-02-20T06:59:04;102386.97;;;7.29;92.82
71043;BME280;58696;52.134;5.500;2023-02-20T07:01:39;102388.56;;;7.30;92.86
71043;BME280;58696;52.134;5.500;2023-02-20T07:04:08;102386.03;;;7.30;92.54
71043;BME280;58696;52.134;5.500;2023-02-20T07:06:39;102386.03;;;7.30;92.55
71043;BME280;58696;52.134;5.500;2023-02-20T07:09:08;102391.94;;;7.30;92.45
71043;BME280;58696;52.134;5.500;2023-02-20T07:11:35;102390.19;;;7.31;92.63
71043;BME280;58696;52.134;5.500;2023-02-20T07:14:01;102388.56;;;7.30;92.63
71043;BME280;58696;52.134;5.500;2023-02-20T07:16:28;102392.75;;;7.31;92.65
71043;BME280;58696;52.134;5.500;2023-02-20T07:18:56;102403.66;;;7.33;92.67
71043;BME280;58696;52.134;5.500;2023-02-20T07:21:28;102403.66;;;7.33;92.48
71043;BME280;58696;52.134;5.500;2023-02-20T07:23:54;102392.53;;;7.34;92.61
71043;BME280;58696;52.134;5.500;2023-02-20T07:26:27;102403.56;;;7.34;92.72
71043;BME280;58696;52.134;5.500;2023-02-20T07:28:55;102391.69;;;7.33;92.60
71043;BME280;58696;52.134;5.500;2023-02-20T07:31:24;102399.13;;;7.36;92.78
71043;BME280;58696;52.134;5.500;2023-02-20T07:33:51;102408.41;;;7.37;92.62
71043;BME280;58696;52.134;5.500;2023-02-20T07:36:20;102408.41;;;7.37;92.66
71043;BME280;58696;52.134;5.500;2023-02-20T07:38:55;102419.34;;;7.40;92.75
71043;BME280;58696;52.134;5.500;2023-02-20T07:41:23;102407.25;;;7.42;92.99
71043;BME280;58696;52.134;5.500;2023-02-20T07:43:52;102402.81;;;7.44;92.42
71043;BME280;58696;52.134;5.500;2023-02-20T07:46:20;102400.25;;;7.44;92.61
71043;BME280;58696;52.134;5.500;2023-02-20T07:48:49;102406.16;;;7.44;92.58
71043;BME280;58696;52.134;5.500;2023-02-20T07:51:15;102406.06;;;7.46;92.80
71043;BME280;58696;52.134;5.500;2023-02-20T07:53:49;102410.94;;;7.49;92.53
71043;BME280;58696;52.134;5.500;2023-02-20T07:56:17;102407.44;;;7.50;92.80
71043;BME280;58696;52.134;5.500;2023-02-20T07:58:47;102398.84;;;7.51;92.69
71043;BME280;58696;52.134;5.500;2023-02-20T08:01:19;102406.38;;;7.52;92.62
71043;BME280;58696;52.134;5.500;2023-02-20T08:03:49;102399.28;;;7.56;92.79
71043;BME280;58696;52.134;5.500;2023-02-20T08:06:18;102387.03;;;7.59;92.68
71043;BME280;58696;52.134;5.500;2023-02-20T08:08:52;102402.03;;;7.64;92.59
71043;BME280;58696;52.134;5.500;2023-02-20T08:11:21;102396.53;;;7.69;92.48
71043;BME280;58696;52.134;5.500;2023-02-20T08:13:48;102393.03;;;7.70;92.45
71043;BME280;58696;52.134;5.500;2023-02-20T08:16:21;102394.66;;;7.71;92.42
71043;BME280;58696;52.134;5.500;2023-02-20T08:18:52;102386.03;;;7.72;92.42
71043;BME280;58696;52.134;5.500;2023-02-20T08:21:21;102397.78;;;7.74;92.46
71043;BME280;58696;52.134;5.500;2023-02-20T08:23:51;102389.84;;;7.77;92.38
71043;BME280;58696;52.134;5.500;2023-02-20T08:26:21;102393.78;;;7.81;92.22
71043;BME280;58696;52.134;5.500;2023-02-20T08:28:49;102398.53;;;7.86;92.28
71043;BME280;58696;52.134;5.500;2023-02-20T08:31:21;102390.63;;;7.89;92.15
71043;BME280;58696;52.134;5.500;2023-02-20T08:34:02;102392.09;;;7.91;92.12
71043;BME280;58696;52.134;5.500;2023-02-20T08:36:29;102397.22;;;7.91;91.99
71043;BME280;58696;52.134;5.500;2023-02-20T08:38:58;102391.16;;;7.93;92.13
71043;BME280;58696;52.134;5.500;2023-02-20T08:41:28;102392.66;;;7.95;92.19
71043;BME280;58696;52.134;5.500;2023-02-20T08:43:55;102396.59;;;7.99;92.05
71043;BME280;58696;52.134;5.500;2023-02-20T08:46:21;102398.31;;;7.99;92.19
71043;BME280;58696;52.134;5.500;2023-02-20T08:48:48;102401.16;;;7.96;92.07
71043;BME280;58696;52.134;5.500;2023-02-20T08:51:19;102402.63;;;7.98;91.88
71043;BME280;58696;52.134;5.500;2023-02-20T08:53:47;102404.28;;;7.99;92.13
71043;BME280;58696;52.134;5.500;2023-02-20T08:56:17;102403.34;;;8.00;92.12
71043;BME280;58696;52.134;5.500;2023-02-20T08:58:46;102398.22;;;8.00;91.94
71043;BME280;58696;52.134;5.500;2023-02-20T09:01:15;102399.84;;;8.01;92.15
71043;BME280;58696;52.134;5.500;2023-02-20T09:03:44;102398.09;;;8.02;92.29
71043;BME280;58696;52.134;5.500;2023-02-20T09:06:14;102401.47;;;8.02;92.24
71043;BME280;58696;52.134;5.500;2023-02-20T09:08:42;102404.81;;;8.03;92.21
71043;BME280;58696;52.134;5.500;2023-02-20T09:11:13;102404.81;;;8.03;92.20
71043;BME280;58696;52.134;5.500;2023-02-20T09:13:41;102398.91;;;8.02;92.22
71043;BME280;58696;52.134;5.500;2023-02-20T09:16:09;102396.34;;;8.02;92.11
71043;BME280;58696;52.134;5.500;2023-02-20T09:18:38;102403.88;;;8.04;92.29
71043;BME280;58696;52.134;5.500;2023-02-20T09:21:12;102401.47;;;8.02;92.10
71043;BME280;58696;52.134;5.500;2023-02-20T09:23:39;102397.41;;;8.00;92.24
71043;BME280;58696;52.134;5.500;2023-02-20T09:26:06;102396.72;;;7.98;92.13
71043;BME280;58696;52.134;5.500;2023-02-20T09:28:36;102395.09;;;7.97;92.40
71043;BME280;58696;52.134;5.500;2023-02-20T09:31:06;102394.41;;;7.95;92.32
71043;BME280;58696;52.134;5.500;2023-02-20T09:33:33;102390.09;;;7.95;92.52
71043;BME280;58696;52.134;5.500;2023-02-20T09:36:02;102384.19;;;7.95;92.38
71043;BME280;58696;52.134;5.500;2023-02-20T09:38:31;102384.84;;;7.97;92.78
71043;BME280;58696;52.134;5.500;2023-02-20T09:40:59;102384.63;;;8.00;92.44
71043;BME280;58696;52.134;5.500;2023-02-20T09:46:20;102382.34;;;8.06;92.23
71043;BME280;58696;52.134;5.500;2023-02-20T09:49:24;102379.50;;;8.09;92.16
71043;BME280;58696;52.134;5.500;2023-02-20T09:51:55;102375.09;;;8.11;91.99
71043;BME280;58696;52.134;5.500;2023-02-20T09:54:36;102369.97;;;8.11;92.05
71043;BME280;58696;52.134;5.500;2023-02-20T09:57:12;102373.34;;;8.12;92.11
71043;BME280;58696;52.134;5.500;2023-02-20T10:02:15;102373.06;;;8.15;91.92
71043;BME280;58696;52.134;5.500;2023-02-20T10:04:49;102374.72;;;8.16;91.89
71043;BME280;58696;52.134;5.500;2023-02-20T10:07:37;102382.25;;;8.17;92.05
71043;BME280;58696;52.134;5.500;2023-02-20T10:10:26;102375.25;;;8.20;91.67
71043;BME280;58696;52.134;5.500;2023-02-20T10:21:43;102388.25;;;8.28;91.65
71043;BME280;58696;52.134;5.500;2023-02-20T10:27:15;102394.59;;;8.33;91.48
71043;BME280;58696;52.134;5.500;2023-02-20T10:29:45;102392.19;;;8.32;91.75
71043;BME280;58696;52.134;5.500;2023-02-20T10:32:21;102396.34;;;8.33;91.52
71043;BME280;58696;52.134;5.500;2023-02-20T10:37:27;102376.53;;;8.35;91.49
71043;BME280;58696;52.134;5.500;2023-02-20T10:40:22;102389.13;;;8.38;91.30
71043;BME280;58696;52.134;5.500;2023-02-20T10:43:35;102372.94;;;8.37;91.44
71043;BME280;58696;52.134;5.500;2023-02-20T10:46:16;102352.31;;;8.39;91.31
71043;BME280;58696;52.134;5.500;2023-02-20T10:48:46;102367.84;;;8.37;91.28
71043;BME280;58696;52.134;5.500;2023-02-20T10:51:27;102369.66;;;8.35;91.11
71043;BME280;58696;52.134;5.500;2023-02-20T10:54:30;102364.53;;;8.35;91.40
71043;BME280;58696;52.134;5.500;2023-02-20T10:57:06;102354.34;;;8.45;91.34
71043;BME280;58696;52.134;5.500;2023-02-20T10:59:42;102357.34;;;8.50;91.01
71043;BME280;58696;52.134;5.500;2023-02-20T11:02:17;102368.16;;;8.54;90.86
71043;BME280;58696;52.134;5.500;2023-02-20T11:04:50;102378.50;;;8.52;90.90
71043;BME280;58696;52.134;5.500;2023-02-20T11:07:19;102362.59;;;8.49;90.93
71043;BME280;58696;52.134;5.500;2023-02-20T11:09:50;102368.94;;;8.45;90.98
71043;BME280;58696;52.134;5.500;2023-02-20T11:12:55;102361.09;;;8.46;90.93
71043;BME280;58696;52.134;5.500;2023-02-20T11:15:24;102353.16;;;8.49;91.11
71043;BME280;58696;52.134;5.500;2023-02-20T11:17:55;102347.09;;;8.50;90.80
71043;BME280;58696;52.134;5.500;2023-02-20T11:23:03;102352.47;;;8.47;90.94
71043;BME280;58696;52.134;5.500;2023-02-20T11:25:34;102365.28;;;8.47;91.08
71043;BME280;58696;52.134;5.500;2023-02-20T11:28:18;102340.34;;;8.49;90.76
71043;BME280;58696;52.134;5.500;2023-02-20T11:30:56;102329.81;;;8.52;90.84
71043;BME280;58696;52.134;5.500;2023-02-20T11:33:25;102334.16;;;8.52;90.59
71043;BME280;58696;52.134;5.500;2023-02-20T11:35:56;102329.97;;;8.51;90.46
71043;BME280;58696;52.134;5.500;2023-02-20T11:38:32;102324.97;;;8.49;90.38
71043;BME280;58696;52.134;5.500;2023-02-20T11:43:37;102333.63;;;8.48;90.41
71043;BME280;58696;52.134;5.500;2023-02-20T11:46:22;102338.75;;;8.48;90.52
71043;BME280;58696;52.134;5.500;2023-02-20T11:48:59;102322.41;;;8.49;90.52
71043;BME280;58696;52.134;5.500;2023-02-20T11:54:15;102367.44;;;8.52;90.43
71043;BME280;58696;52.134;5.500;2023-02-20T11:59:30;102365.03;;;8.50;90.49
71043;BME280;58696;52.134;5.500;2023-02-20T12:02:24;102344.66;;;8.49;90.36
71043;BME280;58696;52.134;5.500;2023-02-20T12:07:39;102352.88;;;8.52;90.46
71043;BME280;58696;52.134;5.500;2023-02-20T12:10:34;102352.78;;;8.54;90.26
71043;BME280;58696;52.134;5.500;2023-02-20T12:13:05;102359.38;;;8.56;90.15
71043;BME280;58696;52.134;5.500;2023-02-20T12:15:38;102355.06;;;8.57;90.01
71043;BME280;58696;52.134;5.500;2023-02-20T12:20:50;102349.78;;;8.58;89.94
71043;BME280;58696;52.134;5.500;2023-02-20T12:29:29;102342.56;;;8.73;89.82
71043;BME280;58696;52.134;5.500;2023-02-20T12:45:55;102325.69;;;8.80;89.38
71043;BME280;58696;52.134;5.500;2023-02-20T12:51:23;102321.53;;;8.89;89.42
71043;BME280;58696;52.134;5.500;2023-02-20T12:54:12;102313.69;;;8.90;89.18
71043;BME280;58696;52.134;5.500;2023-02-20T12:56:52;102316.94;;;8.92;89.14
71043;BME280;58696;52.134;5.500;2023-02-20T12:59:30;102323.69;;;8.93;89.25
71043;BME280;58696;52.134;5.500;2023-02-20T13:02:11;102316.66;;;8.95;89.01
71043;BME280;58696;52.134;5.500;2023-02-20T13:04:47;102326.66;;;8.99;88.86
71043;BME280;58696;52.134;5.500;2023-02-20T13:07:25;102322.50;;;8.98;88.89
71043;BME280;58696;52.134;5.500;2023-02-20T13:09:56;102305.47;;;8.96;88.95
71043;BME280;58696;52.134;5.500;2023-02-20T13:12:27;102313.03;;;8.98;88.68
71043;BME280;58696;52.134;5.500;2023-02-20T13:14:56;102307.91;;;8.98;88.80
71043;BME280;58696;52.134;5.500;2023-02-20T13:17:48;102311.94;;;9.01;88.95
71043;BME280;58696;52.134;5.500;2023-02-20T13:20:30;102304.66;;;9.06;88.53
71043;BME280;58696;52.134;5.500;2023-02-20T13:23:04;102280.38;;;9.10;88.71
71043;BME280;58696;52.134;5.500;2023-02-20T13:25:37;102285.63;;;9.08;88.46
71043;BME280;58696;52.134;5.500;2023-02-20T13:31:09;102301.94;;;9.07;88.54
71043;BME280;58696;52.134;5.500;2023-02-20T13:33:44;102288.47;;;9.05;88.66
71043;BME280;58696;52.134;5.500;2023-02-20T13:36:38;102281.03;;;9.02;88.73
71043;BME280;58696;52.134;5.500;2023-02-20T13:55:10;102277.13;;;8.98;88.89
71043;BME280;58696;52.134;5.500;2023-02-20T14:02:56;102279.81;;;8.96;88.56
71043;BME280;58696;52.134;5.500;2023-02-20T14:05:25;102269.69;;;8.95;88.71
71043;BME280;58696;52.134;5.500;2023-02-20T14:07:56;102263.78;;;8.94;88.65
71043;BME280;58696;52.134;5.500;2023-02-20T14:10:29;102269.69;;;8.95;88.86
71043;BME280;58696;52.134;5.500;2023-02-20T14:13:18;102257.97;;;8.92;88.78
71043;BME280;58696;52.134;5.500;2023-02-20T14:16:03;102253.91;;;8.90;88.85
71043;BME280;58696;52.134;5.500;2023-02-20T14:18:33;102236.25;;;8.87;88.98
71043;BME280;58696;52.134;5.500;2023-02-20T14:23:43;102230.31;;;8.86;89.07
71043;BME280;58696;52.134;5.500;2023-02-20T14:28:51;102233.81;;;8.85;89.11
71043;BME280;58696;52.134;5.500;2023-02-20T14:31:24;102254.88;;;8.89;89.13
71043;BME280;58696;52.134;5.500;2023-02-20T14:33:57;102239.50;;;8.89;88.84
71043;BME280;58696;52.134;5.500;2023-02-20T14:41:56;102256.88;;;8.85;89.11
71043;BME280;58696;52.134;5.500;2023-02-20T14:44:27;102253.50;;;8.85;88.98
71043;BME280;58696;52.134;5.500;2023-02-20T14:47:13;102254.31;;;8.85;88.97
71043;BME280;58696;52.134;5.500;2023-02-20T14:49:43;102249.47;;;8.82;88.81
71043;BME280;58696;52.134;5.500;2023-02-20T14:54:38;102255.66;;;8.80;88.90
71043;BME280;58696;52.134;5.500;2023-02-20T14:57:05;102256.47;;;8.80;88.88
71043;BME280;58696;52.134;5.500;2023-02-20T14:59:34;102260.78;;;8.80;88.98
71043;BME280;58696;52.134;5.500;2023-02-20T15:05:03;102259.88;;;8.81;88.84
71043;BME280;58696;52.134;5.500;2023-02-20T15:07:34;102250.44;;;8.81;88.94
71043;BME280;58696;52.134;5.500;2023-02-20T15:10:06;102248.78;;;8.80;88.90
71043;BME280;58696;52.134;5.500;2023-02-20T15:12:37;102247.47;;;8.76;88.94
71043;BME280;58696;52.134;5.500;2023-02-20T15:15:11;102237.22;;;8.76;88.97
71043;BME280;58696;52.134;5.500;2023-02-20T15:17:40;102246.66;;;8.76;89.09
71043;BME280;58696;52.134;5.500;2023-02-20T15:22:42;102253.66;;;8.74;88.93
71043;BME280;58696;52.134;5.500;2023-02-20T15:30:30;102243.53;;;8.72;88.87
71043;BME280;58696;52.134;5.500;2023-02-20T15:33:01;102252.19;;;8.71;89.05
71043;BME280;58696;52.134;5.500;2023-02-20T15:35:29;102244.75;;;8.68;89.13
71043;BME280;58696;52.134;5.500;2023-02-20T15:38:08;102241.53;;;8.66;89.28
71043;BME280;58696;52.134;5.500;2023-02-20T15:40:35;102241.78;;;8.63;89.49
71043;BME280;58696;52.134;5.500;2023-02-20T15:43:01;102239.34;;;8.61;89.36
71043;BME280;58696;52.134;5.500;2023-02-20T15:45:49;102243.94;;;8.58;89.24